sensor_id;sensor_type;location;lat;lon;timestamp;pressure;altitude;pressure_sealevel;temperature;humidity
61697;BME280;47610;52.252;20.922;2023-04-24T00:00:07;99362.85;;;14.03;78.91
61697;BME280;47610;52.252;20.922;2023-04-24T00:05:10;99358.42;;;14.04;79.70
61697;BME280;47610;52.252;20.922;2023-04-24T00:10:13;99350.42;;;14.05;79.79
61697;BME280;47610;52.252;20.922;2023-04-24T00:15:17;99344.83;;;14.07;80.28
61697;BME280;47610;52.252;20.922;2023-04-24T00:20:20;99343.84;;;14.08;80.42
61697;BME280;47610;52.252;20.922;2023-04-24T00:25:23;99335.09;;;14.10;80.14
61697;BME280;47610;52.252;20.922;2023-04-24T00:30:26;99335.48;;;14.12;80.74
61697;BME280;47610;52.252;20.922;2023-04-24T00:35:30;99339.67;;;14.13;80.64
61697;BME280;47610;52.252;20.922;2023-04-24T00:40:33;99339.02;;;14.15;81.22
61697;BME280;47610;52.252;20.922;2023-04-24T00:45:36;99338.19;;;14.14;81.67
61697;BME280;47610;52.252;20.922;2023-04-24T00:50:39;99338.63;;;14.10;82.27
61697;BME280;47610;52.252;20.922;2023-04-24T00:55:43;99339.34;;;14.05;82.73
61697;BME280;47610;52.252;20.922;2023-04-24T01:00:47;99336.02;;;13.98;83.29
61697;BME280;47610;52.252;20.922;2023-04-24T01:05:52;99334.90;;;13.89;83.80
61697;BME280;47610;52.252;20.922;2023-04-24T01:10:58;99333.92;;;13.85;83.89
61697;BME280;47610;52.252;20.922;2023-04-24T01:16:01;99331.72;;;13.83;83.94
61697;BME280;47610;52.252;20.922;2023-04-24T01:21:05;99325.23;;;13.82;84.11
61697;BME280;47610;52.252;20.922;2023-04-24T01:26:11;99323.51;;;13.79;84.35
61697;BME280;47610;52.252;20.922;2023-04-24T01:31:15;99322.89;;;13.77;84.52
61697;BME280;47610;52.252;20.922;2023-04-24T01:36:19;99322.81;;;13.74;84.81
61697;BME280;47610;52.252;20.922;2023-04-24T01:41:24;99316.16;;;13.68;85.56
61697;BME280;47610;52.252;20.922;2023-04-24T01:46:28;99308.95;;;13.62;86.17
61697;BME280;47610;52.252;20.922;2023-04-24T01:51:31;99306.05;;;13.55;86.04
61697;BME280;47610;52.252;20.922;2023-04-24T01:56:35;99296.09;;;13.55;86.24
61697;BME280;47610;52.252;20.922;2023-04-24T02:01:39;99294.26;;;13.54;86.37
61697;BME280;47610;52.252;20.922;2023-04-24T02:06:43;99291.23;;;13.49;86.71
61697;BME280;47610;52.252;20.922;2023-04-24T02:11:46;99299.04;;;13.47;87.15
61697;BME280;47610;52.252;20.922;2023-04-24T02:16:49;99304.55;;;13.47;87.76
61697;BME280;47610;52.252;20.922;2023-04-24T02:21:52;99296.77;;;13.48;87.78
61697;BME280;47610;52.252;20.922;2023-04-24T02:26:56;99291.91;;;13.49;87.73
61697;BME280;47610;52.252;20.922;2023-04-24T02:31:59;99281.20;;;13.50;87.59
61697;BME280;47610;52.252;20.922;2023-04-24T02:37:02;99278.88;;;13.51;87.32
61697;BME280;47610;52.252;20.922;2023-04-24T02:42:05;99275.91;;;13.51;87.25
61697;BME280;47610;52.252;20.922;2023-04-24T02:47:08;99270.31;;;13.50;87.34
61697;BME280;47610;52.252;20.922;2023-04-24T02:52:12;99269.08;;;13.49;87.66
61697;BME280;47610;52.252;20.922;2023-04-24T02:57:15;99269.69;;;13.48;88.12
61697;BME280;47610;52.252;20.922;2023-04-24T03:02:18;99270.86;;;13.44;88.52
61697;BME280;47610;52.252;20.922;2023-04-24T03:07:21;99267.98;;;13.41;89.25
61697;BME280;47610;52.252;20.922;2023-04-24T03:12:25;99267.16;;;13.34;91.20
61697;BME280;47610;52.252;20.922;2023-04-24T03:17:28;99260.27;;;13.25;90.15
61697;BME280;47610;52.252;20.922;2023-04-24T03:22:31;99264.89;;;13.23;91.18
61697;BME280;47610;52.252;20.922;2023-04-24T03:27:34;99258.02;;;13.21;91.19
61697;BME280;47610;52.252;20.922;2023-04-24T03:32:37;99265.64;;;13.25;90.67
61697;BME280;47610;52.252;20.922;2023-04-24T03:37:40;99267.19;;;13.33;90.24
61697;BME280;47610;52.252;20.922;2023-04-24T03:42:44;99269.98;;;13.33;90.16
61697;BME280;47610;52.252;20.922;2023-04-24T03:47:47;99271.64;;;13.35;89.87
61697;BME280;47610;52.252;20.922;2023-04-24T03:52:50;99273.17;;;13.37;89.65
61697;BME280;47610;52.252;20.922;2023-04-24T03:57:55;99267.88;;;13.37;88.97
61697;BME280;47610;52.252;20.922;2023-04-24T04:02:58;99265.25;;;13.38;88.82
61697;BME280;47610;52.252;20.922;2023-04-24T04:08:02;99269.04;;;13.45;88.56
61697;BME280;47610;52.252;20.922;2023-04-24T04:13:06;99275.00;;;13.48;88.28
61697;BME280;47610;52.252;20.922;2023-04-24T04:18:08;99273.13;;;13.56;87.83
61697;BME280;47610;52.252;20.922;2023-04-24T04:23:11;99277.36;;;13.58;87.71
61697;BME280;47610;52.252;20.922;2023-04-24T04:28:15;99276.95;;;13.66;87.90
61697;BME280;47610;52.252;20.922;2023-04-24T04:33:18;99276.27;;;14.02;87.86
61697;BME280;47610;52.252;20.922;2023-04-24T04:38:24;99276.79;;;15.84;83.91
61697;BME280;47610;52.252;20.922;2023-04-24T04:43:27;99278.10;;;17.99;74.36
61697;BME280;47610;52.252;20.922;2023-04-24T04:48:30;99278.51;;;20.08;63.62
61697;BME280;47610;52.252;20.922;2023-04-24T04:53:33;99278.52;;;21.90;53.17
61697;BME280;47610;52.252;20.922;2023-04-24T04:58:37;99281.90;;;23.39;45.90
61697;BME280;47610;52.252;20.922;2023-04-24T05:03:40;99276.08;;;24.78;40.24
61697;BME280;47610;52.252;20.922;2023-04-24T05:08:43;99275.89;;;26.17;36.54
61697;BME280;47610;52.252;20.922;2023-04-24T05:13:46;99284.08;;;27.52;32.63
61697;BME280;47610;52.252;20.922;2023-04-24T05:18:50;99282.38;;;27.92;30.14
61697;BME280;47610;52.252;20.922;2023-04-24T05:23:53;99283.48;;;28.22;29.39
61697;BME280;47610;52.252;20.922;2023-04-24T05:28:56;99281.23;;;28.36;29.07
61697;BME280;47610;52.252;20.922;2023-04-24T05:34:01;99276.96;;;27.93;28.57
61697;BME280;47610;52.252;20.922;2023-04-24T05:39:04;99270.21;;;25.95;29.97
61697;BME280;47610;52.252;20.922;2023-04-24T05:44:07;99266.71;;;24.22;32.10
61697;BME280;47610;52.252;20.922;2023-04-24T05:49:10;99264.56;;;23.16;34.49
61697;BME280;47610;52.252;20.922;2023-04-24T05:54:14;99256.67;;;22.31;36.58
61697;BME280;47610;52.252;20.922;2023-04-24T05:59:17;99255.75;;;21.42;38.74
61697;BME280;47610;52.252;20.922;2023-04-24T06:04:20;99252.13;;;20.89;40.98
61697;BME280;47610;52.252;20.922;2023-04-24T06:09:25;99249.80;;;20.93;42.91
61697;BME280;47610;52.252;20.922;2023-04-24T06:14:29;99249.27;;;21.81;43.53
61697;BME280;47610;52.252;20.922;2023-04-24T06:19:32;99251.02;;;23.75;41.45
61697;BME280;47610;52.252;20.922;2023-04-24T06:24:36;99254.13;;;25.19;38.25
61697;BME280;47610;52.252;20.922;2023-04-24T06:29:38;99253.88;;;25.61;35.05
61697;BME280;47610;52.252;20.922;2023-04-24T06:34:41;99249.73;;;25.95;32.93
61697;BME280;47610;52.252;20.922;2023-04-24T06:39:45;99245.85;;;26.00;32.64
61697;BME280;47610;52.252;20.922;2023-04-24T06:44:48;99237.84;;;26.46;31.55
61697;BME280;47610;52.252;20.922;2023-04-24T06:49:51;99233.73;;;27.30;32.12
61697;BME280;47610;52.252;20.922;2023-04-24T06:55:01;99238.79;;;28.28;29.78
61697;BME280;47610;52.252;20.922;2023-04-24T07:00:06;99235.20;;;28.57;28.68
61697;BME280;47610;52.252;20.922;2023-04-24T07:05:10;99238.11;;;28.96;27.88
61697;BME280;47610;52.252;20.922;2023-04-24T07:10:13;99239.86;;;29.19;27.41
61697;BME280;47610;52.252;20.922;2023-04-24T07:15:16;99237.94;;;28.85;27.54
61697;BME280;47610;52.252;20.922;2023-04-24T07:20:20;99233.85;;;29.28;27.58
61697;BME280;47610;52.252;20.922;2023-04-24T07:25:21;99236.77;;;30.84;26.05
61697;BME280;47610;52.252;20.922;2023-04-24T07:30:25;99232.73;;;30.74;25.53
61697;BME280;47610;52.252;20.922;2023-04-24T07:35:28;99235.20;;;31.04;24.83
61697;BME280;47610;52.252;20.922;2023-04-24T07:40:31;99235.86;;;30.26;24.91
61697;BME280;47610;52.252;20.922;2023-04-24T07:45:34;99232.78;;;29.39;26.39
61697;BME280;47610;52.252;20.922;2023-04-24T07:50:37;99225.64;;;28.38;26.86
61697;BME280;47610;52.252;20.922;2023-04-24T07:55:41;99224.16;;;27.54;28.01
61697;BME280;47610;52.252;20.922;2023-04-24T08:00:44;99224.02;;;27.52;28.82
61697;BME280;47610;52.252;20.922;2023-04-24T08:05:47;99225.57;;;28.80;29.19
61697;BME280;47610;52.252;20.922;2023-04-24T08:10:50;99231.46;;;30.81;27.31
61697;BME280;47610;52.252;20.922;2023-04-24T08:15:54;99239.91;;;32.19;25.42
61697;BME280;47610;52.252;20.922;2023-04-24T08:20:57;99238.80;;;32.27;24.45
61697;BME280;47610;52.252;20.922;2023-04-24T08:26:00;99236.61;;;30.83;25.66
61697;BME280;47610;52.252;20.922;2023-04-24T08:31:04;99240.01;;;29.76;26.86
61697;BME280;47610;52.252;20.922;2023-04-24T08:36:05;99241.36;;;28.94;27.91
61697;BME280;47610;52.252;20.922;2023-04-24T08:41:10;99237.48;;;28.89;28.58
61697;BME280;47610;52.252;20.922;2023-04-24T08:46:14;99238.36;;;27.79;29.19
61697;BME280;47610;52.252;20.922;2023-04-24T08:51:18;99234.20;;;27.22;31.02
61697;BME280;47610;52.252;20.922;2023-04-24T08:56:22;99233.11;;;28.54;31.36
61697;BME280;47610;52.252;20.922;2023-04-24T09:01:27;99231.95;;;27.88;30.72
61697;BME280;47610;52.252;20.922;2023-04-24T09:06:31;99229.33;;;26.82;32.54
61697;BME280;47610;52.252;20.922;2023-04-24T09:11:35;99222.72;;;26.00;33.64
61697;BME280;47610;52.252;20.922;2023-04-24T09:16:39;99225.42;;;25.28;35.40
61697;BME280;47610;52.252;20.922;2023-04-24T09:21:46;99227.15;;;24.89;36.26
61697;BME280;47610;52.252;20.922;2023-04-24T09:26:57;99217.62;;;25.46;36.43
61697;BME280;47610;52.252;20.922;2023-04-24T09:32:19;99212.64;;;27.04;35.09
61697;BME280;47610;52.252;20.922;2023-04-24T09:37:30;99202.70;;;26.44;32.25
61697;BME280;47610;52.252;20.922;2023-04-24T09:42:33;99199.93;;;25.68;32.59
61697;BME280;47610;52.252;20.922;2023-04-24T09:47:38;99191.24;;;25.86;32.47
61697;BME280;47610;52.252;20.922;2023-04-24T09:52:46;99188.85;;;26.81;32.50
61697;BME280;47610;52.252;20.922;2023-04-24T09:57:52;99185.96;;;27.20;32.73
61697;BME280;47610;52.252;20.922;2023-04-24T10:03:00;99182.79;;;27.42;32.59
61697;BME280;47610;52.252;20.922;2023-04-24T10:08:06;99176.66;;;27.41;31.30
61697;BME280;47610;52.252;20.922;2023-04-24T10:13:10;99170.61;;;27.13;30.82
61697;BME280;47610;52.252;20.922;2023-04-24T10:18:14;99164.24;;;26.82;32.30
61697;BME280;47610;52.252;20.922;2023-04-24T10:23:20;99160.86;;;26.29;31.98
61697;BME280;47610;52.252;20.922;2023-04-24T10:28:23;99153.52;;;26.04;32.91
61697;BME280;47610;52.252;20.922;2023-04-24T10:33:26;99151.64;;;26.07;33.60
61697;BME280;47610;52.252;20.922;2023-04-24T10:38:30;99139.97;;;25.85;33.73
61697;BME280;47610;52.252;20.922;2023-04-24T10:43:34;99130.73;;;25.57;34.30
61697;BME280;47610;52.252;20.922;2023-04-24T10:48:43;99125.17;;;25.54;35.18
61697;BME280;47610;52.252;20.922;2023-04-24T10:53:47;99124.41;;;25.61;34.09
61697;BME280;47610;52.252;20.922;2023-04-24T10:58:55;99117.31;;;25.44;33.98
61697;BME280;47610;52.252;20.922;2023-04-24T11:04:00;99113.66;;;25.32;35.32
61697;BME280;47610;52.252;20.922;2023-04-24T11:09:08;99115.96;;;25.41;33.45
61697;BME280;47610;52.252;20.922;2023-04-24T11:14:13;99108.29;;;25.49;32.47
61697;BME280;47610;52.252;20.922;2023-04-24T11:19:24;99113.29;;;25.43;33.67
61697;BME280;47610;52.252;20.922;2023-04-24T11:24:29;99105.70;;;25.28;35.58
61697;BME280;47610;52.252;20.922;2023-04-24T11:29:43;99103.70;;;25.19;36.33
61697;BME280;47610;52.252;20.922;2023-04-24T11:34:50;99102.95;;;25.28;34.90
61697;BME280;47610;52.252;20.922;2023-04-24T11:39:55;99110.38;;;24.91;31.14
61697;BME280;47610;52.252;20.922;2023-04-24T11:44:58;99105.62;;;24.44;31.43
61697;BME280;47610;52.252;20.922;2023-04-24T11:50:03;99102.70;;;23.91;31.71
61697;BME280;47610;52.252;20.922;2023-04-24T11:55:12;99097.52;;;23.61;32.27
61697;BME280;47610;52.252;20.922;2023-04-24T12:00:26;99089.70;;;23.38;32.18
61697;BME280;47610;52.252;20.922;2023-04-24T12:05:32;99079.14;;;23.29;32.16
61697;BME280;47610;52.252;20.922;2023-04-24T12:10:35;99075.41;;;23.36;32.38
61697;BME280;47610;52.252;20.922;2023-04-24T12:15:41;99066.83;;;23.38;31.49
61697;BME280;47610;52.252;20.922;2023-04-24T12:20:44;99060.39;;;23.31;30.43
61697;BME280;47610;52.252;20.922;2023-04-24T12:25:47;99053.55;;;23.28;31.81
61697;BME280;47610;52.252;20.922;2023-04-24T12:30:54;99046.98;;;23.13;33.19
61697;BME280;47610;52.252;20.922;2023-04-24T12:35:56;99040.52;;;23.07;33.25
61697;BME280;47610;52.252;20.922;2023-04-24T12:41:08;99037.23;;;22.96;34.27
61697;BME280;47610;52.252;20.922;2023-04-24T12:46:12;99039.66;;;22.86;30.54
61697;BME280;47610;52.252;20.922;2023-04-24T12:51:15;99039.76;;;22.68;30.39
61697;BME280;47610;52.252;20.922;2023-04-24T12:56:20;99063.40;;;22.36;35.46
61697;BME280;47610;52.252;20.922;2023-04-24T13:01:23;99077.27;;;22.00;37.13
61697;BME280;47610;52.252;20.922;2023-04-24T13:06:27;99089.26;;;21.56;38.73
61697;BME280;47610;52.252;20.922;2023-04-24T13:11:30;99088.20;;;21.10;39.84
61697;BME280;47610;52.252;20.922;2023-04-24T13:16:34;99088.90;;;20.70;40.86
61697;BME280;47610;52.252;20.922;2023-04-24T13:21:39;99080.83;;;20.43;42.18
61697;BME280;47610;52.252;20.922;2023-04-24T13:26:43;99071.29;;;20.21;43.55
61697;BME280;47610;52.252;20.922;2023-04-24T13:31:47;99069.02;;;20.02;44.33
61697;BME280;47610;52.252;20.922;2023-04-24T13:36:50;99066.29;;;19.88;44.36
61697;BME280;47610;52.252;20.922;2023-04-24T13:41:54;99069.91;;;19.86;44.21
61697;BME280;47610;52.252;20.922;2023-04-24T13:46:58;99063.34;;;19.84;42.05
61697;BME280;47610;52.252;20.922;2023-04-24T13:52:03;99067.35;;;19.89;41.52
61697;BME280;47610;52.252;20.922;2023-04-24T13:57:06;99060.95;;;20.02;40.36
61697;BME280;47610;52.252;20.922;2023-04-24T14:02:10;99055.44;;;20.05;40.16
61697;BME280;47610;52.252;20.922;2023-04-24T14:07:13;99055.24;;;20.17;39.99
61697;BME280;47610;52.252;20.922;2023-04-24T14:12:16;99049.11;;;20.37;40.01
61697;BME280;47610;52.252;20.922;2023-04-24T14:17:20;99043.64;;;20.53;38.52
61697;BME280;47610;52.252;20.922;2023-04-24T14:22:23;99036.33;;;20.60;37.17
61697;BME280;47610;52.252;20.922;2023-04-24T14:27:27;99034.52;;;20.53;37.12
61697;BME280;47610;52.252;20.922;2023-04-24T14:32:31;99016.90;;;20.45;37.90
61697;BME280;47610;52.252;20.922;2023-04-24T14:37:33;99013.30;;;20.39;37.40
61697;BME280;47610;52.252;20.922;2023-04-24T14:42:38;99010.31;;;20.33;37.45
61697;BME280;47610;52.252;20.922;2023-04-24T14:47:43;99008.91;;;20.35;38.46
61697;BME280;47610;52.252;20.922;2023-04-24T14:52:47;99006.09;;;20.44;38.89
61697;BME280;47610;52.252;20.922;2023-04-24T14:57:50;98993.33;;;20.53;37.88
61697;BME280;47610;52.252;20.922;2023-04-24T15:02:53;98986.60;;;20.61;37.84
61697;BME280;47610;52.252;20.922;2023-04-24T15:07:56;98980.34;;;20.65;37.88
61697;BME280;47610;52.252;20.922;2023-04-24T15:13:00;98978.44;;;20.66;37.24
61697;BME280;47610;52.252;20.922;2023-04-24T15:18:03;98969.04;;;20.69;35.38
61697;BME280;47610;52.252;20.922;2023-04-24T15:23:09;98965.46;;;20.70;35.71
61697;BME280;47610;52.252;20.922;2023-04-24T15:28:12;98958.48;;;20.67;35.54
61697;BME280;47610;52.252;20.922;2023-04-24T15:33:16;98956.20;;;20.66;36.15
61697;BME280;47610;52.252;20.922;2023-04-24T15:38:19;98949.05;;;20.73;35.45
61697;BME280;47610;52.252;20.922;2023-04-24T15:43:23;98946.13;;;20.94;34.73
61697;BME280;47610;52.252;20.922;2023-04-24T15:48:28;98934.64;;;21.09;35.13
61697;BME280;47610;52.252;20.922;2023-04-24T15:53:32;98925.30;;;21.29;33.46
61697;BME280;47610;52.252;20.922;2023-04-24T15:58:35;98918.79;;;21.48;32.01
61697;BME280;47610;52.252;20.922;2023-04-24T16:03:39;98912.81;;;21.58;31.72
61697;BME280;47610;52.252;20.922;2023-04-24T16:08:42;98911.79;;;21.68;30.93
61697;BME280;47610;52.252;20.922;2023-04-24T16:13:46;98912.55;;;21.55;30.27
61697;BME280;47610;52.252;20.922;2023-04-24T16:18:49;98909.13;;;21.36;30.76
61697;BME280;47610;52.252;20.922;2023-04-24T16:23:52;98912.95;;;21.20;31.18
61697;BME280;47610;52.252;20.922;2023-04-24T16:28:55;98913.56;;;21.04;31.48
61697;BME280;47610;52.252;20.922;2023-04-24T16:33:58;98912.83;;;20.89;31.22
61697;BME280;47610;52.252;20.922;2023-04-24T16:39:02;98909.92;;;20.74;31.61
61697;BME280;47610;52.252;20.922;2023-04-24T16:44:05;98914.71;;;20.62;32.10
61697;BME280;47610;52.252;20.922;2023-04-24T16:49:08;98908.73;;;20.63;32.92
61697;BME280;47610;52.252;20.922;2023-04-24T16:54:12;98910.20;;;20.65;32.95
61697;BME280;47610;52.252;20.922;2023-04-24T16:59:16;98909.32;;;20.54;33.48
61697;BME280;47610;52.252;20.922;2023-04-24T17:04:17;98908.43;;;20.38;33.95
61697;BME280;47610;52.252;20.922;2023-04-24T17:09:21;98902.01;;;20.19;34.66
61697;BME280;47610;52.252;20.922;2023-04-24T17:14:25;98904.10;;;19.99;35.37
61697;BME280;47610;52.252;20.922;2023-04-24T17:19:28;98905.20;;;19.83;36.16
61697;BME280;47610;52.252;20.922;2023-04-24T17:24:32;98908.61;;;19.72;36.95
61697;BME280;47610;52.252;20.922;2023-04-24T17:29:35;98908.81;;;19.63;37.62
61697;BME280;47610;52.252;20.922;2023-04-24T17:34:38;98907.16;;;19.55;38.44
61697;BME280;47610;52.252;20.922;2023-04-24T17:39:41;98909.35;;;19.47;39.07
61697;BME280;47610;52.252;20.922;2023-04-24T17:44:45;98908.34;;;19.40;39.54
61697;BME280;47610;52.252;20.922;2023-04-24T17:49:48;98909.94;;;19.32;40.22
61697;BME280;47610;52.252;20.922;2023-04-24T17:54:52;98911.88;;;19.21;40.89
61697;BME280;47610;52.252;20.922;2023-04-24T17:59:55;98905.83;;;19.08;41.37
61697;BME280;47610;52.252;20.922;2023-04-24T18:04:59;98903.52;;;18.97;41.89
61697;BME280;47610;52.252;20.922;2023-04-24T18:10:02;98902.77;;;18.83;42.32
61697;BME280;47610;52.252;20.922;2023-04-24T18:15:08;98904.57;;;18.71;43.22
61697;BME280;47610;52.252;20.922;2023-04-24T18:20:13;98907.85;;;18.61;43.49
61697;BME280;47610;52.252;20.922;2023-04-24T18:25:17;98912.23;;;18.54;43.88
61697;BME280;47610;52.252;20.922;2023-04-24T18:30:20;98912.23;;;18.51;43.98
61697;BME280;47610;52.252;20.922;2023-04-24T18:35:24;98918.54;;;18.51;44.26
61697;BME280;47610;52.252;20.922;2023-04-24T18:40:27;98921.20;;;18.52;44.30
61697;BME280;47610;52.252;20.922;2023-04-24T18:45:30;98919.58;;;18.51;43.97
61697;BME280;47610;52.252;20.922;2023-04-24T18:50:34;98924.45;;;18.52;44.15
61697;BME280;47610;52.252;20.922;2023-04-24T18:55:37;98926.63;;;18.50;43.93
61697;BME280;47610;52.252;20.922;2023-04-24T19:00:40;98931.37;;;18.44;43.84
61697;BME280;47610;52.252;20.922;2023-04-24T19:05:43;98931.30;;;18.38;43.41
61697;BME280;47610;52.252;20.922;2023-04-24T19:10:47;98933.63;;;18.32;43.33
61697;BME280;47610;52.252;20.922;2023-04-24T19:15:50;98934.44;;;18.25;42.52
61697;BME280;47610;52.252;20.922;2023-04-24T19:20:53;98938.04;;;18.19;41.78
61697;BME280;47610;52.252;20.922;2023-04-24T19:25:56;98935.27;;;18.13;41.53
61697;BME280;47610;52.252;20.922;2023-04-24T19:31:00;98943.89;;;18.18;41.87
61697;BME280;47610;52.252;20.922;2023-04-24T19:36:03;98942.40;;;18.39;41.15
61697;BME280;47610;52.252;20.922;2023-04-24T19:41:06;98933.22;;;18.56;40.86
61697;BME280;47610;52.252;20.922;2023-04-24T19:46:10;98935.41;;;18.50;41.29
61697;BME280;47610;52.252;20.922;2023-04-24T19:51:13;98940.20;;;18.37;41.76
61697;BME280;47610;52.252;20.922;2023-04-24T19:56:16;98969.73;;;18.27;42.76
61697;BME280;47610;52.252;20.922;2023-04-24T20:01:19;98977.17;;;18.22;44.25
61697;BME280;47610;52.252;20.922;2023-04-24T20:06:23;98973.27;;;18.12;48.80
61697;BME280;47610;52.252;20.922;2023-04-24T20:11:26;98972.46;;;18.01;53.59
61697;BME280;47610;52.252;20.922;2023-04-24T20:16:30;98972.69;;;17.91;57.62
61697;BME280;47610;52.252;20.922;2023-04-24T20:21:33;98977.78;;;17.80;59.89
61697;BME280;47610;52.252;20.922;2023-04-24T20:26:36;98975.55;;;17.68;62.86
61697;BME280;47610;52.252;20.922;2023-04-24T20:31:39;98973.52;;;17.55;66.90
61697;BME280;47610;52.252;20.922;2023-04-24T20:36:43;98977.95;;;17.39;71.11
61697;BME280;47610;52.252;20.922;2023-04-24T20:41:46;98973.70;;;17.23;74.65
61697;BME280;47610;52.252;20.922;2023-04-24T20:46:49;98972.20;;;17.04;78.21
61697;BME280;47610;52.252;20.922;2023-04-24T20:51:53;98967.83;;;16.82;81.52
61697;BME280;47610;52.252;20.922;2023-04-24T20:56:56;98968.73;;;16.60;84.76
61697;BME280;47610;52.252;20.922;2023-04-24T21:02:00;98971.55;;;16.41;87.33
61697;BME280;47610;52.252;20.922;2023-04-24T21:07:02;98973.41;;;16.27;89.44
61697;BME280;47610;52.252;20.922;2023-04-24T21:12:06;98973.33;;;16.15;91.76
61697;BME280;47610;52.252;20.922;2023-04-24T21:17:09;98973.14;;;16.06;93.38
61697;BME280;47610;52.252;20.922;2023-04-24T21:22:13;98977.86;;;15.97;95.60
61697;BME280;47610;52.252;20.922;2023-04-24T21:27:16;98977.39;;;15.93;96.45
61697;BME280;47610;52.252;20.922;2023-04-24T21:32:19;98980.58;;;15.89;97.34
61697;BME280;47610;52.252;20.922;2023-04-24T21:37:22;98985.11;;;15.82;98.37
61697;BME280;47610;52.252;20.922;2023-04-24T21:42:26;98987.81;;;15.75;99.58
61697;BME280;47610;52.252;20.922;2023-04-24T21:47:29;98985.66;;;15.66;100.00
61697;BME280;47610;52.252;20.922;2023-04-24T21:52:32;98990.48;;;15.57;100.00
61697;BME280;47610;52.252;20.922;2023-04-24T21:57:36;98988.48;;;15.50;100.00
61697;BME280;47610;52.252;20.922;2023-04-24T22:02:39;98984.39;;;15.44;100.00
61697;BME280;47610;52.252;20.922;2023-04-24T22:07:43;98983.14;;;15.40;100.00
61697;BME280;47610;52.252;20.922;2023-04-24T22:12:47;98986.88;;;15.33;100.00
61697;BME280;47610;52.252;20.922;2023-04-24T22:17:50;98982.42;;;15.26;100.00
61697;BME280;47610;52.252;20.922;2023-04-24T22:22:53;98982.08;;;15.21;100.00
61697;BME280;47610;52.252;20.922;2023-04-24T22:27:56;98984.11;;;15.16;100.00
61697;BME280;47610;52.252;20.922;2023-04-24T22:32:59;98982.49;;;15.12;100.00
61697;BME280;47610;52.252;20.922;2023-04-24T22:38:03;98982.80;;;15.06;100.00
61697;BME280;47610;52.252;20.922;2023-04-24T22:43:06;98987.08;;;14.97;100.00
61697;BME280;47610;52.252;20.922;2023-04-24T22:48:10;98986.73;;;14.91;100.00
61697;BME280;47610;52.252;20.922;2023-04-24T22:53:13;98985.63;;;14.84;100.00
61697;BME280;47610;52.252;20.922;2023-04-24T22:58:16;98984.84;;;14.76;100.00
61697;BME280;47610;52.252;20.922;2023-04-24T23:03:19;98986.66;;;14.63;100.00
61697;BME280;47610;52.252;20.922;2023-04-24T23:08:24;98987.56;;;14.52;100.00
61697;BME280;47610;52.252;20.922;2023-04-24T23:13:27;98983.75;;;14.40;100.00
61697;BME280;47610;52.252;20.922;2023-04-24T23:18:30;98985.98;;;14.31;100.00
61697;BME280;47610;52.252;20.922;2023-04-24T23:23:33;98988.02;;;14.23;100.00
61697;BME280;47610;52.252;20.922;2023-04-24T23:28:36;98982.84;;;14.11;100.00
61697;BME280;47610;52.252;20.922;2023-04-24T23:33:40;98975.45;;;14.06;100.00
61697;BME280;47610;52.252;20.922;2023-04-24T23:38:43;98978.08;;;14.05;100.00
61697;BME280;47610;52.252;20.922;2023-04-24T23:43:46;98975.84;;;14.06;100.00
61697;BME280;47610;52.252;20.922;2023-04-24T23:48:49;98974.19;;;14.08;100.00
61697;BME280;47610;52.252;20.922;2023-04-24T23:53:52;98965.86;;;14.10;100.00
61697;BME280;47610;52.252;20.922;2023-04-24T23:58:56;98959.61;;;14.08;100.00
